Time;durP1;ratioP1;P1;durP2;ratioP2;P2;SDS_P1;SDS_P2;PMS_P1;PMS_P2;Temp;Humidity;BMP_temperature;BMP_pressure;BME280_temperature;BME280_humidity;BME280_pressure;Samples;Min_cycle;Max_cycle;Signal;HPM_P1;HPM_P2
2023/08/25 00:01:15;;;;;;;24.27;21.42;;;;;;;18.99;100.00;100815.75;5058327;28;20166;-67
2023/08/25 00:03:40;;;;;;;25.30;21.60;;;;;;;18.94;100.00;100824.44;5055860;28;20089;-68
2023/08/25 00:06:05;;;;;;;25.50;21.52;;;;;;;18.89;100.00;100818.28;5053442;28;20040;-68
2023/08/25 00:08:31;;;;;;;26.98;21.23;;;;;;;18.90;100.00;100814.28;5055029;28;20017;-67
2023/08/25 00:10:56;;;;;;;25.23;21.27;;;;;;;18.92;100.00;100817.53;5054886;28;20021;-68
2023/08/25 00:13:21;;;;;;;25.55;21.05;;;;;;;18.94;100.00;100818.84;5055302;28;20024;-68
2023/08/25 00:15:49;;;;;;;25.08;21.98;;;;;;;18.88;100.00;100825.06;5054281;28;20090;-68
2023/08/25 00:18:14;;;;;;;26.02;22.42;;;;;;;18.86;100.00;100820.66;5055173;28;20061;-67
2023/08/25 00:20:41;;;;;;;27.02;22.63;;;;;;;18.83;100.00;100820.56;5054848;28;20060;-68
2023/08/25 00:23:07;;;;;;;28.15;23.73;;;;;;;18.80;100.00;100822.06;5054802;28;20029;-69
2023/08/25 00:25:32;;;;;;;27.35;23.17;;;;;;;18.78;100.00;100821.66;5054792;28;20029;-68
2023/08/25 00:27:58;;;;;;;26.75;22.80;;;;;;;18.78;100.00;100821.66;5054841;28;20033;-68
2023/08/25 00:30:23;;;;;;;27.25;22.95;;;;;;;18.78;100.00;100824.44;5054535;28;20024;-67
2023/08/25 00:32:48;;;;;;;28.42;24.00;;;;;;;18.73;100.00;100827.50;5054477;28;20067;-67
2023/08/25 00:35:14;;;;;;;26.15;22.75;;;;;;;18.76;100.00;100832.41;5054376;28;20021;-68
2023/08/25 00:37:39;;;;;;;26.48;22.88;;;;;;;18.73;100.00;100829.50;5054850;28;20052;-67
2023/08/25 00:40:06;;;;;;;28.85;23.30;;;;;;;18.73;100.00;100826.72;5054669;28;20360;-67
2023/08/25 00:42:31;;;;;;;27.08;23.70;;;;;;;18.71;100.00;100833.50;5053145;28;20444;-68
2023/08/25 00:44:56;;;;;;;27.23;23.98;;;;;;;18.66;100.00;100841.34;5054274;28;20064;-68
2023/08/25 00:47:24;;;;;;;26.90;23.05;;;;;;;18.59;100.00;100830.78;5054189;28;20074;-67
2023/08/25 00:49:50;;;;;;;27.58;23.55;;;;;;;18.54;100.00;100829.06;5054133;28;20021;-67
2023/08/25 00:52:16;;;;;;;27.48;23.73;;;;;;;18.53;100.00;100830.22;5054127;28;20032;-67
2023/08/25 00:54:44;;;;;;;26.02;22.23;;;;;;;18.51;100.00;100824.19;5054113;28;20035;-68
2023/08/25 00:57:09;;;;;;;26.55;23.10;;;;;;;18.49;100.00;100822.91;5054142;28;20074;-68
2023/08/25 00:59:35;;;;;;;26.15;23.35;;;;;;;18.50;100.00;100828.16;5054073;28;20063;-69
2023/08/25 01:02:02;;;;;;;28.08;23.40;;;;;;;18.50;100.00;100822.56;5054265;28;20025;-68
2023/08/25 01:04:28;;;;;;;28.48;23.95;;;;;;;18.47;100.00;100816.84;5053886;28;20100;-67
2023/08/25 01:06:54;;;;;;;26.35;23.52;;;;;;;18.43;100.00;100813.16;5054211;28;20104;-67
2023/08/25 01:09:20;;;;;;;27.83;24.27;;;;;;;18.48;100.00;100812.88;5054035;28;20025;-67
2023/08/25 01:11:58;;;;;;;28.02;24.13;;;;;;;18.50;100.00;100814.16;5053635;28;20036;-68
2023/08/25 01:14:43;;;;;;;26.92;23.45;;;;;;;18.52;100.00;100811.00;5053541;28;20045;-67
2023/08/25 01:17:14;;;;;;;26.58;23.58;;;;;;;18.54;100.00;100808.66;5053055;28;20029;-67
2023/08/25 01:19:54;;;;;;;27.13;23.80;;;;;;;18.55;100.00;100818.69;5052170;28;20116;-68
2023/08/25 01:22:52;;;;;;;28.25;25.15;;;;;;;18.53;100.00;100807.81;5053402;28;20034;-68
2023/08/25 01:25:25;;;;;;;26.65;22.92;;;;;;;18.50;100.00;100810.53;5053494;28;20044;-67
2023/08/25 01:27:52;;;;;;;27.77;23.40;;;;;;;18.48;100.00;100808.09;5051887;28;20025;-67
2023/08/25 01:30:19;;;;;;;27.75;24.70;;;;;;;18.43;100.00;100807.56;5053227;28;20020;-67
2023/08/25 01:32:45;;;;;;;28.52;24.67;;;;;;;18.38;100.00;100803.03;5053208;28;20020;-67
2023/08/25 01:35:15;;;;;;;26.77;23.00;;;;;;;18.39;100.00;100805.47;5053249;28;20035;-67
2023/08/25 01:37:50;;;;;;;26.83;23.73;;;;;;;18.37;100.00;100813.41;5053012;28;20017;-68
2023/08/25 01:40:26;;;;;;;27.58;24.08;;;;;;;18.39;100.00;100802.66;5052992;28;20410;-68
2023/08/25 01:42:54;;;;;;;28.52;24.73;;;;;;;18.40;100.00;100804.31;5053322;28;20064;-69
2023/08/25 01:45:22;;;;;;;28.35;23.80;;;;;;;18.44;100.00;100801.59;5052946;28;20362;-67
2023/08/25 01:47:49;;;;;;;29.10;23.90;;;;;;;18.46;100.00;100796.44;5051625;28;20059;-67
2023/08/25 01:50:15;;;;;;;28.02;25.02;;;;;;;18.41;100.00;100788.31;5052960;28;20542;-68
2023/08/25 01:52:41;;;;;;;27.52;24.55;;;;;;;18.40;100.00;100790.28;5053195;28;20115;-67
2023/08/25 01:55:08;;;;;;;28.35;25.35;;;;;;;18.39;100.00;100799.06;5053739;28;20029;-68
2023/08/25 01:57:33;;;;;;;29.10;25.13;;;;;;;18.43;100.00;100797.16;5052870;28;20472;-68
2023/08/25 01:59:59;;;;;;;27.73;24.73;;;;;;;18.43;100.00;100794.34;5052713;28;20039;-68
2023/08/25 02:02:24;;;;;;;28.27;25.35;;;;;;;18.46;100.00;100793.63;5052755;28;20047;-68
2023/08/25 02:04:49;;;;;;;28.83;25.45;;;;;;;18.48;100.00;100790.47;5052637;28;20108;-67
2023/08/25 02:07:14;;;;;;;30.20;26.33;;;;;;;18.52;100.00;100780.97;5052474;28;20031;-67
2023/08/25 02:09:40;;;;;;;30.70;26.10;;;;;;;18.50;100.00;100779.72;5052821;28;20112;-67
2023/08/25 02:12:06;;;;;;;30.20;26.52;;;;;;;18.52;100.00;100786.59;5052489;28;20050;-67
2023/08/25 02:14:32;;;;;;;31.05;27.25;;;;;;;18.52;100.00;100783.78;5052246;28;20060;-66
2023/08/25 02:16:57;;;;;;;29.65;26.45;;;;;;;18.54;100.00;100777.84;5051859;28;20361;-66
2023/08/25 02:19:22;;;;;;;31.55;27.75;;;;;;;18.54;100.00;100773.03;5052651;28;20036;-67
2023/08/25 02:21:48;;;;;;;29.98;26.77;;;;;;;18.55;100.00;100773.88;5052568;28;20017;-67
2023/08/25 02:24:13;;;;;;;28.80;25.60;;;;;;;18.60;100.00;100775.56;5050968;28;20029;-67
2023/08/25 02:26:38;;;;;;;28.88;25.77;;;;;;;18.58;100.00;100766.72;5051783;28;20021;-67
2023/08/25 02:29:06;;;;;;;29.65;25.95;;;;;;;18.60;100.00;100773.56;5052940;28;20040;-67
2023/08/25 02:31:31;;;;;;;28.75;25.75;;;;;;;18.61;100.00;100766.78;5052227;28;20029;-66
2023/08/25 02:33:56;;;;;;;28.65;25.60;;;;;;;18.66;100.00;100768.50;5052103;28;20043;-67
2023/08/25 02:36:22;;;;;;;30.50;27.30;;;;;;;18.64;100.00;100763.28;5052463;28;20079;-67
2023/08/25 02:38:47;;;;;;;30.73;27.52;;;;;;;18.65;100.00;100756.50;5052077;28;20056;-66
2023/08/25 02:41:13;;;;;;;30.35;26.52;;;;;;;18.69;100.00;100748.19;5051961;28;20021;-67
2023/08/25 02:43:38;;;;;;;30.23;26.98;;;;;;;18.69;100.00;100750.97;5052146;28;20020;-67
2023/08/25 02:46:03;;;;;;;29.90;26.67;;;;;;;18.69;100.00;100748.19;5050624;28;20078;-67
2023/08/25 02:48:29;;;;;;;28.60;25.50;;;;;;;18.67;100.00;100748.53;5052102;28;20105;-67
2023/08/25 02:50:54;;;;;;;30.40;27.20;;;;;;;18.69;100.00;100746.16;5052470;28;20107;-66
2023/08/25 02:53:20;;;;;;;29.92;26.63;;;;;;;18.73;100.00;100737.03;5052041;28;20111;-67
2023/08/25 02:55:46;;;;;;;30.02;26.80;;;;;;;18.68;100.00;100741.75;5051943;28;20035;-67
2023/08/25 02:58:11;;;;;;;30.67;27.38;;;;;;;18.67;100.00;100740.13;5052319;28;20057;-67
2023/08/25 03:00:36;;;;;;;29.25;26.08;;;;;;;18.65;100.00;100734.09;5051893;28;20107;-67
2023/08/25 03:03:03;;;;;;;31.05;27.75;;;;;;;18.63;100.00;100732.81;5052354;28;20104;-67
2023/08/25 03:05:28;;;;;;;31.08;27.77;;;;;;;18.60;100.00;100739.16;5052042;28;20112;-66
2023/08/25 03:07:53;;;;;;;30.40;27.13;;;;;;;18.61;100.00;100726.78;5051816;28;20387;-67
2023/08/25 03:10:19;;;;;;;31.10;27.80;;;;;;;18.57;100.00;100723.06;5052144;28;20024;-67
2023/08/25 03:12:45;;;;;;;30.30;26.88;;;;;;;18.60;100.00;100723.16;5051975;28;20071;-67
2023/08/25 03:15:10;;;;;;;30.52;27.33;;;;;;;18.64;100.00;100712.84;5051635;28;20053;-67
2023/08/25 03:17:36;;;;;;;31.05;27.65;;;;;;;18.66;100.00;100718.06;5051242;28;20024;-67
2023/08/25 03:20:02;;;;;;;30.67;27.38;;;;;;;18.65;100.00;100714.47;5052033;28;20083;-66
2023/08/25 03:22:28;;;;;;;31.10;27.55;;;;;;;18.66;100.00;100707.66;5051780;28;20056;-67
2023/08/25 03:24:54;;;;;;;30.83;27.10;;;;;;;18.67;100.00;100705.69;5051975;28;20526;-67
2023/08/25 03:27:19;;;;;;;31.27;27.88;;;;;;;18.67;100.00;100709.28;5050160;28;20017;-66
2023/08/25 03:29:44;;;;;;;30.67;27.42;;;;;;;18.63;100.00;100701.97;5051908;28;20036;-66
2023/08/25 03:32:10;;;;;;;30.60;27.17;;;;;;;18.58;100.00;100700.28;5052100;28;20108;-66
2023/08/25 03:34:36;;;;;;;32.60;29.10;;;;;;;18.54;100.00;100696.59;5051545;28;20025;-66
2023/08/25 03:37:03;;;;;;;31.67;28.02;;;;;;;18.54;100.00;100689.00;5051858;28;20017;-66
2023/08/25 03:39:28;;;;;;;32.13;28.75;;;;;;;18.57;100.00;100684.66;5054491;28;20021;-67
2023/08/25 03:41:53;;;;;;;31.80;28.40;;;;;;;18.57;100.00;100687.44;5055369;28;20039;-67
2023/08/25 03:44:19;;;;;;;30.95;27.52;;;;;;;18.58;100.00;100688.28;5055725;28;20051;-67
2023/08/25 03:46:45;;;;;;;32.58;28.23;;;;;;;18.59;100.00;100684.28;5055417;28;20017;-67
2023/08/25 03:49:10;;;;;;;31.27;27.80;;;;;;;18.58;100.00;100677.88;5055157;28;20039;-67
2023/08/25 03:51:36;;;;;;;31.83;28.42;;;;;;;18.58;100.00;100677.06;5055634;28;20025;-67
2023/08/25 03:54:02;;;;;;;32.08;28.70;;;;;;;18.58;100.00;100680.66;5055157;28;20104;-67
2023/08/25 03:56:27;;;;;;;32.28;28.70;;;;;;;18.57;100.00;100684.66;5055317;28;20070;-67
2023/08/25 03:58:52;;;;;;;31.42;28.02;;;;;;;18.60;100.00;100680.31;5055060;28;20070;-67
2023/08/25 04:01:18;;;;;;;31.65;28.25;;;;;;;18.57;100.00;100673.44;5055158;28;20029;-67
2023/08/25 04:03:43;;;;;;;32.58;28.42;;;;;;;18.60;100.00;100685.94;5055101;28;20146;-67
2023/08/25 04:06:09;;;;;;;32.15;28.65;;;;;;;18.61;100.00;100684.75;5054970;28;20029;-67
2023/08/25 04:08:34;;;;;;;33.13;29.58;;;;;;;18.61;100.00;100681.94;5055340;28;20104;-67
2023/08/25 04:11:00;;;;;;;34.42;30.60;;;;;;;18.65;100.00;100680.84;5053439;28;20568;-67
2023/08/25 04:13:25;;;;;;;34.90;29.85;;;;;;;18.66;100.00;100681.66;5054840;28;20107;-67
2023/08/25 04:15:58;;;;;;;33.08;29.63;;;;;;;18.65;100.00;100677.22;5054072;28;20041;-67
2023/08/25 04:18:25;;;;;;;33.85;30.30;;;;;;;18.64;100.00;100673.63;5054676;28;20166;-66
2023/08/25 04:20:50;;;;;;;32.92;28.27;;;;;;;18.64;100.00;100667.19;5054474;28;20103;-67
2023/08/25 04:23:15;;;;;;;33.38;28.77;;;;;;;18.63;100.00;100671.16;5054426;28;20124;-67
2023/08/25 04:25:42;;;;;;;32.38;28.88;;;;;;;18.62;100.00;100669.53;5054383;28;20021;-67
2023/08/25 04:28:07;;;;;;;32.55;28.80;;;;;;;18.60;100.00;100669.91;5054867;28;20071;-66
2023/08/25 04:30:32;;;;;;;32.90;29.17;;;;;;;18.61;100.00;100673.53;5054400;28;20056;-66
2023/08/25 04:32:58;;;;;;;33.45;29.92;;;;;;;18.58;100.00;100666.66;5054900;28;20052;-66
2023/08/25 04:35:23;;;;;;;35.70;31.70;;;;;;;18.55;100.00;100671.00;5054472;28;20417;-65
2023/08/25 04:37:48;;;;;;;34.97;31.27;;;;;;;18.50;100.00;100667.69;5054271;28;20406;-66
2023/08/25 04:40:14;;;;;;;35.80;32.15;;;;;;;18.45;100.00;100679.19;5054086;28;20397;-66
2023/08/25 04:42:40;;;;;;;34.58;30.98;;;;;;;18.44;100.00;100672.75;5054006;28;20051;-66
2023/08/25 04:45:07;;;;;;;35.17;31.48;;;;;;;18.44;100.00;100666.34;5054201;28;20376;-66
2023/08/25 04:47:32;;;;;;;36.00;32.17;;;;;;;18.42;100.00;100672.28;5053896;28;20025;-66
2023/08/25 04:50:00;;;;;;;36.75;32.42;;;;;;;18.45;100.00;100682.78;5053799;28;20037;-67
2023/08/25 04:52:25;;;;;;;36.20;32.15;;;;;;;18.43;100.00;100673.91;5053969;28;20025;-67
2023/08/25 04:54:51;;;;;;;35.78;31.98;;;;;;;18.47;100.00;100677.63;5053849;28;20024;-68
2023/08/25 05:00:38;;;;;;;44.83;37.63;;;;;;;18.53;100.00;100669.75;5054066;28;20086;-66
2023/08/25 05:03:03;;;;;;;48.53;39.00;;;;;;;18.54;100.00;100671.38;5052610;28;20021;-67
2023/08/25 05:05:28;;;;;;;50.72;39.85;;;;;;;18.57;100.00;100667.03;5053829;28;20392;-68
2023/08/25 05:07:54;;;;;;;47.13;38.45;;;;;;;18.54;100.00;100655.38;5054106;28;20028;-66
2023/08/25 05:10:19;;;;;;;45.30;35.67;;;;;;;18.57;100.00;100650.22;5053581;28;20103;-67
2023/08/25 05:12:44;;;;;;;43.63;35.60;;;;;;;18.57;100.00;100651.03;5053822;28;20047;-66
2023/08/25 05:15:10;;;;;;;45.28;35.38;;;;;;;18.60;100.00;100652.31;5053467;28;20135;-67
2023/08/25 05:17:35;;;;;;;41.97;33.67;;;;;;;18.59;100.00;100651.47;5053030;28;20021;-66
2023/08/25 05:20:01;;;;;;;38.30;31.20;;;;;;;18.62;100.00;100649.94;5053300;28;20044;-66
2023/08/25 05:22:26;;;;;;;36.95;30.25;;;;;;;18.66;100.00;100637.63;5053402;28;20073;-66
2023/08/25 05:24:52;;;;;;;36.60;29.55;;;;;;;18.69;100.00;100634.09;5053371;28;20021;-66
2023/08/25 05:27:18;;;;;;;34.85;28.60;;;;;;;18.71;100.00;100633.72;5053290;28;20017;-66
2023/08/25 05:29:44;;;;;;;32.08;26.83;;;;;;;18.77;100.00;100646.28;5053212;28;20057;-66
2023/08/25 05:32:09;;;;;;;34.40;28.30;;;;;;;18.81;100.00;100641.53;5053190;28;20048;-66
2023/08/25 05:34:35;;;;;;;31.48;26.88;;;;;;;18.85;100.00;100634.03;5053414;28;20032;-66
2023/08/25 05:37:00;;;;;;;34.28;28.77;;;;;;;18.83;100.00;100650.41;5051687;28;20021;-66
2023/08/25 05:39:26;;;;;;;31.60;27.17;;;;;;;18.90;100.00;100646.13;5053279;28;20379;-66
2023/08/25 05:41:51;;;;;;;34.95;28.60;;;;;;;18.92;100.00;100644.59;5052950;28;20118;-66
2023/08/25 05:44:16;;;;;;;33.10;27.60;;;;;;;19.01;100.00;100638.78;5051501;28;20027;-66
2023/08/25 05:46:42;;;;;;;31.92;27.00;;;;;;;19.04;100.00;100638.06;5052806;28;20040;-66
2023/08/25 05:49:07;;;;;;;34.22;28.90;;;;;;;19.06;100.00;100643.28;5052970;28;20079;-66
2023/08/25 05:51:32;;;;;;;33.67;28.10;;;;;;;19.14;100.00;100636.63;5054133;28;20029;-67
2023/08/25 05:53:58;;;;;;;31.80;26.85;;;;;;;19.16;100.00;100640.72;5041191;28;20021;-66
2023/08/25 05:56:23;;;;;;;33.97;28.95;;;;;;;19.12;100.00;100639.81;5050380;28;20025;-66
2023/08/25 05:58:48;;;;;;;31.80;27.30;;;;;;;19.12;100.00;100631.41;5031765;28;20049;-66
2023/08/25 06:01:14;;;;;;;34.22;28.60;;;;;;;19.12;100.00;100625.78;5048777;28;20021;-65
2023/08/25 06:03:40;;;;;;;34.88;28.35;;;;;;;19.12;100.00;100622.19;5051477;28;20391;-66
2023/08/25 06:06:05;;;;;;;32.25;26.55;;;;;;;19.16;100.00;100621.09;5051836;28;20032;-66
2023/08/25 06:08:31;;;;;;;33.08;27.00;;;;;;;19.17;100.00;100635.91;5046258;28;20334;-66
2023/08/25 06:10:57;;;;;;;32.90;27.15;;;;;;;19.14;100.00;100633.81;5032387;28;20682;-66
2023/08/25 06:13:22;;;;;;;33.28;26.98;;;;;;;19.11;100.00;100634.59;5030838;28;20072;-68
2023/08/25 06:15:48;;;;;;;30.50;25.17;;;;;;;19.11;100.00;100626.97;5030066;28;20057;-68
2023/08/25 06:18:15;;;;;;;31.95;25.92;;;;;;;19.06;100.00;100641.31;5032017;28;20036;-67
2023/08/25 06:20:41;;;;;;;32.20;27.98;;;;;;;19.00;100.00;100637.97;5031738;28;20022;-67
2023/08/25 06:23:07;;;;;;;32.28;27.20;;;;;;;18.94;100.00;100636.63;5031542;28;20443;-67
2023/08/25 06:25:32;;;;;;;32.00;26.52;;;;;;;18.90;100.00;100634.91;5043214;28;20029;-67
2023/08/25 06:27:59;;;;;;;32.28;26.65;;;;;;;18.90;100.00;100651.72;5031212;28;20037;-67
2023/08/25 06:30:26;;;;;;;31.83;25.52;;;;;;;18.92;100.00;100657.78;5036214;28;20025;-67
2023/08/25 06:32:52;;;;;;;31.58;27.10;;;;;;;18.93;100.00;100674.28;5043194;28;20072;-67
2023/08/25 06:35:17;;;;;;;30.35;25.85;;;;;;;18.90;100.00;100685.34;5036207;28;20032;-67
2023/08/25 06:37:43;;;;;;;31.20;24.70;;;;;;;18.90;100.00;100654.53;5045549;28;20041;-66
2023/08/25 06:40:08;;;;;;;31.70;25.65;;;;;;;18.84;100.00;100662.44;5031499;28;20789;-66
2023/08/25 06:42:34;;;;;;;30.70;25.63;;;;;;;18.80;100.00;100636.31;5042987;28;20476;-66
2023/08/25 06:45:00;;;;;;;32.42;25.55;;;;;;;18.82;100.00;100633.97;5051128;28;20082;-67
2023/08/25 06:47:27;;;;;;;31.90;26.60;;;;;;;18.75;100.00;100634.63;5051021;28;20056;-66
2023/08/25 06:49:53;;;;;;;31.42;25.88;;;;;;;18.74;100.00;100633.00;5051033;28;20494;-67
2023/08/25 06:52:19;;;;;;;30.05;24.73;;;;;;;18.74;100.00;100635.78;5045581;28;20164;-67
2023/08/25 06:54:44;;;;;;;30.75;26.67;;;;;;;18.70;100.00;100643.34;5030865;28;20090;-67
2023/08/25 06:57:09;;;;;;;37.50;28.08;;;;;;;18.62;100.00;100653.56;5031443;28;20116;-67
2023/08/25 06:59:35;;;;;;;31.10;25.85;;;;;;;18.62;100.00;100658.34;5040313;28;20028;-67
2023/08/25 07:02:00;;;;;;;33.72;28.08;;;;;;;18.51;100.00;100644.09;5039473;28;20033;-67
2023/08/25 07:04:25;;;;;;;33.22;28.10;;;;;;;18.41;100.00;100603.47;5030794;28;20053;-67
2023/08/25 07:06:51;;;;;;;32.10;25.48;;;;;;;18.45;100.00;100583.94;5045969;28;20025;-71
2023/08/25 07:09:17;;;;;;;34.20;27.52;;;;;;;18.46;100.00;100574.38;5049894;28;20036;-71
2023/08/25 07:11:43;;;;;;;34.92;28.70;;;;;;;18.46;100.00;100575.16;5048510;28;20132;-69
2023/08/25 07:14:09;;;;;;;32.83;26.30;;;;;;;18.53;100.00;100566.91;5045425;28;20110;-72
2023/08/25 07:16:34;;;;;;;31.60;27.48;;;;;;;18.60;100.00;100574.66;5049762;28;20040;-72
2023/08/25 07:18:59;;;;;;;35.80;30.27;;;;;;;18.59;100.00;100578.66;5050287;28;20017;-71
2023/08/25 07:21:25;;;;;;;35.60;30.55;;;;;;;18.52;100.00;100584.09;5033877;28;20032;-73
2023/08/25 07:23:50;;;;;;;37.58;30.20;;;;;;;18.47;100.00;100589.97;5037713;28;20032;-72
2023/08/25 07:26:16;;;;;;;33.00;27.50;;;;;;;18.50;100.00;100578.88;5053839;28;20036;-72
2023/08/25 07:28:41;;;;;;;35.25;31.00;;;;;;;18.51;100.00;100582.47;5053496;28;20033;-73
2023/08/25 07:31:07;;;;;;;33.53;28.00;;;;;;;18.57;100.00;100594.19;5052889;28;20021;-71
2023/08/25 07:33:32;;;;;;;36.30;30.73;;;;;;;18.54;100.00;100615.38;5037465;28;20140;-72
2023/08/25 07:35:58;;;;;;;32.90;29.30;;;;;;;18.59;100.00;100637.47;5033357;28;20037;-72
2023/08/25 07:38:23;;;;;;;34.08;28.17;;;;;;;18.66;100.00;100660.03;5042282;28;20482;-72
2023/08/25 07:40:49;;;;;;;35.63;28.48;;;;;;;18.69;100.00;100686.53;5052053;28;20025;-71
2023/08/25 07:43:14;;;;;;;34.95;28.05;;;;;;;18.74;100.00;100713.47;5051630;28;20041;-71
2023/08/25 07:45:40;;;;;;;38.20;30.25;;;;;;;18.65;100.00;100650.03;5037228;28;20021;-68
2023/08/25 07:48:05;;;;;;;36.20;29.25;;;;;;;18.49;100.00;100566.03;5035495;28;20029;-67
2023/08/25 07:50:31;;;;;;;36.53;30.25;;;;;;;18.46;100.00;100619.19;5033728;28;20037;-67
2023/08/25 07:52:58;;;;;;;35.78;30.60;;;;;;;18.41;100.00;100628.69;5032856;28;20037;-67
2023/08/25 07:55:24;;;;;;;32.75;27.42;;;;;;;18.42;100.00;100651.88;5040503;28;20112;-67
2023/08/25 07:57:51;;;;;;;32.80;27.33;;;;;;;18.41;100.00;100684.69;5037829;28;20116;-67
2023/08/25 08:00:17;;;;;;;33.42;28.83;;;;;;;18.39;100.00;100670.25;5032842;28;20025;-67
2023/08/25 08:02:46;;;;;;;32.47;28.33;;;;;;;18.45;100.00;100659.56;5049342;28;20032;-67
2023/08/25 08:05:14;;;;;;;32.60;28.67;;;;;;;18.51;100.00;100664.53;5045198;28;20546;-67
2023/08/25 08:07:39;;;;;;;31.85;27.95;;;;;;;18.55;100.00;100657.00;5041379;28;20124;-67
2023/08/25 08:10:05;;;;;;;32.35;28.15;;;;;;;18.65;100.00;100658.44;5043248;28;20116;-66
2023/08/25 08:12:31;;;;;;;31.65;27.10;;;;;;;18.77;100.00;100665.06;5039926;28;20526;-67
2023/08/25 08:14:57;;;;;;;32.10;28.05;;;;;;;18.77;100.00;100679.09;5043370;28;20125;-67
2023/08/25 08:17:22;;;;;;;32.63;27.02;;;;;;;18.78;100.00;100677.91;5030877;28;20026;-66
2023/08/25 08:19:48;;;;;;;31.05;26.75;;;;;;;18.78;100.00;100680.72;5046677;28;20036;-67
2023/08/25 08:22:13;;;;;;;32.97;27.42;;;;;;;18.85;100.00;100673.28;5032613;28;20031;-66
2023/08/25 08:24:41;;;;;;;30.77;26.45;;;;;;;18.85;100.00;100666.84;5031558;28;20533;-66
2023/08/25 08:27:07;;;;;;;28.85;23.83;;;;;;;18.91;100.00;100656.97;5032455;28;20083;-66
2023/08/25 08:29:33;;;;;;;30.05;25.58;;;;;;;18.93;100.00;100639.81;5033277;28;20492;-66
2023/08/25 08:31:58;;;;;;;28.48;24.52;;;;;;;19.01;100.00;100644.38;5043327;28;20120;-66
2023/08/25 08:34:23;;;;;;;26.80;22.60;;;;;;;19.01;100.00;100644.38;5032898;28;20452;-66
2023/08/25 08:36:49;;;;;;;26.13;22.65;;;;;;;19.08;100.00;100644.53;5036775;28;20033;-64
2023/08/25 08:39:15;;;;;;;27.52;23.23;;;;;;;19.10;100.00;100636.56;5052377;28;20021;-65
2023/08/25 08:41:40;;;;;;;25.35;21.27;;;;;;;19.15;100.00;100650.31;5052456;28;20029;-66
2023/08/25 08:44:08;;;;;;;26.15;22.23;;;;;;;19.14;100.00;100656.25;5037498;28;20800;-65
2023/08/25 08:46:36;;;;;;;25.17;20.38;;;;;;;19.18;100.00;100660.75;5037445;28;20029;-65
2023/08/25 08:49:02;;;;;;;24.35;20.75;;;;;;;19.12;100.00;100673.47;5032605;28;20064;-66
2023/08/25 08:51:30;;;;;;;24.95;20.50;;;;;;;19.07;100.00;100682.19;5049070;28;20126;-66
2023/08/25 08:53:56;;;;;;;23.67;19.73;;;;;;;19.02;100.00;100682.47;5052236;28;20025;-66
2023/08/25 08:56:22;;;;;;;24.17;19.63;;;;;;;18.95;100.00;100671.91;5052038;28;20131;-66
2023/08/25 08:58:48;;;;;;;24.63;19.92;;;;;;;18.90;100.00;100660.97;5052412;28;20155;-66
2023/08/25 09:01:15;;;;;;;24.00;19.67;;;;;;;18.92;100.00;100669.00;5052452;28;20175;-66
2023/08/25 09:03:41;;;;;;;24.15;19.40;;;;;;;18.88;100.00;100684.94;5052881;28;20029;-66
2023/08/25 09:06:07;;;;;;;24.58;19.20;;;;;;;18.84;100.00;100685.66;5051743;28;20115;-66
2023/08/25 09:08:35;;;;;;;23.13;20.05;;;;;;;18.79;100.00;100682.34;5051941;28;20167;-66
2023/08/25 09:11:03;;;;;;;23.27;19.63;;;;;;;18.72;100.00;100688.59;5051922;28;20503;-66
2023/08/25 09:13:33;;;;;;;24.35;19.35;;;;;;;18.69;100.00;100683.72;5047334;28;20037;-65
2023/08/25 09:15:59;;;;;;;25.55;21.02;;;;;;;18.67;100.00;100670.06;5038571;28;20056;-66
2023/08/25 09:18:33;;;;;;;23.55;19.70;;;;;;;18.66;100.00;100660.03;5051839;28;20032;-65
2023/08/25 09:21:00;;;;;;;24.40;19.38;;;;;;;18.70;100.00;100662.94;5053690;28;20033;-65
2023/08/25 09:23:26;;;;;;;23.40;18.95;;;;;;;18.66;100.00;100662.03;5052338;28;20025;-66
2023/08/25 09:25:53;;;;;;;23.13;19.50;;;;;;;18.66;100.00;100667.66;5036336;28;20389;-65
2023/08/25 09:28:23;;;;;;;24.98;20.33;;;;;;;18.53;100.00;100639.75;5032140;28;20033;-65
2023/08/25 09:30:48;;;;;;;24.08;21.08;;;;;;;18.67;100.00;100652.47;5035998;28;20128;-65
2023/08/25 09:33:14;;;;;;;24.75;20.30;;;;;;;18.69;100.00;100639.69;5040260;28;20113;-65
2023/08/25 09:35:40;;;;;;;24.63;20.30;;;;;;;18.77;100.00;100632.28;5041262;28;20034;-66
2023/08/25 09:38:07;;;;;;;24.05;20.33;;;;;;;18.88;100.00;100632.47;5038664;28;20036;-66
2023/08/25 09:40:35;;;;;;;24.10;19.63;;;;;;;19.00;100.00;100635.19;5038986;28;20037;-65
2023/08/25 09:43:03;;;;;;;22.92;19.30;;;;;;;19.11;100.00;100643.78;5051228;28;20104;-65
2023/08/25 09:45:29;;;;;;;23.58;19.05;;;;;;;19.18;100.00;100643.94;5049819;28;20031;-65
2023/08/25 09:48:13;;;;;;;22.77;18.58;;;;;;;19.18;100.00;100638.31;5051282;28;20072;-65
2023/08/25 09:50:43;;;;;;;23.77;20.10;;;;;;;19.22;100.00;100649.63;5051205;28;20449;-65
2023/08/25 09:53:11;;;;;;;22.95;18.60;;;;;;;19.21;100.00;100641.56;5051244;28;20548;-65
2023/08/25 09:55:37;;;;;;;24.10;19.33;;;;;;;19.34;100.00;100659.88;5049378;28;20036;-65
2023/08/25 09:58:08;;;;;;;24.50;19.52;;;;;;;19.44;100.00;100647.22;5050991;28;20150;-65
2023/08/25 10:00:36;;;;;;;24.95;20.17;;;;;;;19.58;100.00;100650.31;5046549;28;20059;-66
2023/08/25 10:03:10;;;;;;;23.88;20.40;;;;;;;19.70;100.00;100657.72;5041999;28;20090;-65
2023/08/25 10:05:41;;;;;;;24.20;20.40;;;;;;;19.70;100.00;100657.72;5050847;28;20433;-65
2023/08/25 10:08:07;;;;;;;23.95;20.17;;;;;;;19.67;100.00;100658.47;5050733;28;20029;-65
2023/08/25 10:10:35;;;;;;;24.90;21.45;;;;;;;19.68;100.00;100654.47;5050650;28;20083;-66
2023/08/25 10:13:03;;;;;;;25.08;21.55;;;;;;;19.77;100.00;100657.84;5050690;28;20040;-66
2023/08/25 10:15:32;;;;;;;25.85;22.55;;;;;;;19.92;100.00;100660.94;5050392;28;20055;-66
2023/08/25 10:18:03;;;;;;;25.45;21.65;;;;;;;19.98;100.00;100653.81;5050591;28;20107;-66
2023/08/25 10:20:31;;;;;;;25.15;21.92;;;;;;;20.15;100.00;100662.91;5047487;28;20032;-65
2023/08/25 10:22:57;;;;;;;25.38;22.40;;;;;;;20.18;100.00;100668.59;5038768;28;20437;-66
2023/08/25 10:25:29;;;;;;;25.45;22.67;;;;;;;20.23;100.00;100670.25;5039124;28;20089;-64
2023/08/25 10:27:56;;;;;;;25.90;22.85;;;;;;;20.41;100.00;100665.72;5045309;28;20029;-65
2023/08/25 10:30:22;;;;;;;25.73;21.92;;;;;;;20.60;100.00;100669.59;5041762;28;20048;-65
2023/08/25 10:32:55;;;;;;;26.00;22.38;;;;;;;20.65;100.00;100666.47;5037054;28;20041;-66
2023/08/25 10:35:47;;;;;;;25.65;22.60;;;;;;;20.78;100.00;100664.28;5038574;28;20491;-66
2023/08/25 10:38:18;;;;;;;25.08;21.65;;;;;;;21.04;100.00;100666.22;5038986;28;20045;-66
2023/08/25 10:40:54;;;;;;;25.33;22.52;;;;;;;21.15;100.00;100662.75;5037256;28;20029;-66
2023/08/25 10:43:25;;;;;;;25.60;22.30;;;;;;;21.13;100.00;100670.75;5050463;28;20540;-66
2023/08/25 10:45:52;;;;;;;25.38;22.13;;;;;;;20.91;100.00;100666.84;5039758;28;20132;-66
2023/08/25 10:48:20;;;;;;;25.38;21.98;;;;;;;20.88;100.00;100660.81;5047663;28;20037;-66
2023/08/25 10:50:47;;;;;;;26.25;23.25;;;;;;;20.86;100.00;100662.38;5044834;28;20033;-66
2023/08/25 10:53:41;;;;;;;25.42;22.63;;;;;;;20.88;100.00;100674.84;5041998;28;20147;-66
2023/08/25 10:56:23;;;;;;;26.00;22.88;;;;;;;20.80;100.00;100680.75;5040429;28;20119;-66
2023/08/25 10:59:06;;;;;;;26.13;22.50;;;;;;;20.65;100.00;100683.34;5039443;28;20041;-66
2023/08/25 11:01:37;;;;;;;25.92;23.13;;;;;;;20.39;100.00;100675.72;5039557;28;20543;-66
2023/08/25 11:04:08;;;;;;;27.20;23.27;;;;;;;20.25;100.00;100676.31;5041367;28;20032;-66